Time;durP1;ratioP1;P1;durP2;ratioP2;P2;SDS_P1;SDS_P2;PMS_P1;PMS_P2;Temp;Humidity;BMP_temperature;BMP_pressure;BME280_temperature;BME280_humidity;BME280_pressure;Samples;Min_cycle;Max_cycle;Signal;HPM_P1;HPM_P2
2022/06/15 00:00:35;;;;;;;3.85;2.83;;;10.10;99.90;;;;;;4993873;28;20033;-79
2022/06/15 00:03:01;;;;;;;4.82;3.55;;;10.10;99.90;;;;;;5011611;28;20519;-79
2022/06/15 00:05:28;;;;;;;7.93;3.90;;;10.00;99.90;;;;;;4993843;28;20026;-79
2022/06/15 00:07:54;;;;;;;6.20;3.85;;;10.00;99.90;;;;;;5011792;28;20068;-79
2022/06/15 00:10:20;;;;;;;5.75;3.63;;;10.00;99.90;;;;;;5011466;28;20037;-78
2022/06/15 00:12:46;;;;;;;7.22;4.35;;;10.00;99.90;;;;;;4996688;28;20022;-79
2022/06/15 00:15:13;;;;;;;5.07;3.80;;;10.00;99.90;;;;;;5009851;28;20036;-79
2022/06/15 00:17:39;;;;;;;5.50;3.40;;;9.90;99.90;;;;;;5009745;28;20041;-79
2022/06/15 00:20:05;;;;;;;8.85;3.50;;;9.90;99.90;;;;;;4989722;28;20031;-79
2022/06/15 00:22:31;;;;;;;4.97;3.75;;;9.80;99.90;;;;;;4991893;28;20029;-80
2022/06/15 00:24:57;;;;;;;6.90;4.10;;;9.80;99.90;;;;;;5011474;28;20080;-79
2022/06/15 00:27:22;;;;;;;4.78;3.58;;;9.70;99.90;;;;;;5011597;28;20030;-79
2022/06/15 00:29:48;;;;;;;6.43;3.85;;;9.70;99.90;;;;;;4993436;28;20415;-79
2022/06/15 00:32:14;;;;;;;6.72;4.15;;;9.60;99.90;;;;;;5011339;28;20105;-79
2022/06/15 00:34:39;;;;;;;6.70;4.00;;;9.60;99.90;;;;;;5011535;28;20048;-79
2022/06/15 00:37:06;;;;;;;6.72;4.18;;;9.70;99.90;;;;;;5011170;28;20422;-79
2022/06/15 00:39:33;;;;;;;6.18;4.32;;;9.60;99.90;;;;;;5011031;28;20022;-79
2022/06/15 00:41:59;;;;;;;7.60;4.40;;;9.60;99.90;;;;;;5014709;28;20049;-78
2022/06/15 00:44:25;;;;;;;5.30;4.35;;;9.60;99.90;;;;;;4997347;28;20072;-79
2022/06/15 00:47:15;;;;;;;7.47;4.60;;;9.70;99.90;;;;;;5014853;28;20121;-79
2022/06/15 00:49:47;;;;;;;9.27;4.45;;;9.60;99.90;;;;;;5025958;23;20037;-86
2022/06/15 00:52:22;;;;;;;6.38;3.92;;;9.60;99.90;;;;;;4974496;28;20431;-86
2022/06/15 00:54:50;;;;;;;11.55;3.97;;;9.50;99.90;;;;;;4974809;28;20023;-86
2022/06/15 00:57:16;;;;;;;5.10;3.53;;;9.50;99.90;;;;;;4974855;28;20081;-86
2022/06/15 00:59:59;;;;;;;5.18;3.83;;;9.40;99.90;;;;;;4977549;28;20034;-86
2022/06/15 01:02:27;;;;;;;7.03;4.35;;;9.40;99.90;;;;;;4994260;28;20049;-85
2022/06/15 01:05:00;;;;;;;6.15;4.07;;;9.30;99.90;;;;;;4994098;28;20022;-86
2022/06/15 01:07:37;;;;;;;6.20;4.13;;;9.40;99.90;;;;;;4994454;28;20486;-87
2022/06/15 01:10:45;;;;;;;6.20;4.00;;;9.40;99.90;;;;;;4987620;28;20038;-85
2022/06/15 01:13:40;;;;;;;9.13;3.90;;;9.30;99.90;;;;;;4930321;29;20030;-85
2022/06/15 01:16:14;;;;;;;6.38;4.15;;;9.20;99.90;;;;;;4933404;29;20047;-85
2022/06/15 01:19:05;;;;;;;5.20;4.03;;;9.10;99.90;;;;;;4977391;28;20046;-85
2022/06/15 01:21:44;;;;;;;6.82;4.75;;;9.00;99.90;;;;;;4993594;28;20529;-85
2022/06/15 01:24:46;;;;;;;6.57;4.03;;;8.90;99.90;;;;;;4993520;28;20027;-85
2022/06/15 01:27:22;;;;;;;6.20;4.25;;;8.80;99.90;;;;;;4993803;28;20029;-85
2022/06/15 01:30:08;;;;;;;8.02;4.55;;;8.80;99.90;;;;;;4993475;28;20037;-86
2022/06/15 01:32:39;;;;;;;7.72;4.40;;;8.70;99.90;;;;;;4976088;28;20511;-84
2022/06/15 01:35:29;;;;;;;10.88;5.03;;;8.80;99.90;;;;;;4992849;28;20519;-87
2022/06/15 01:38:21;;;;;;;6.22;4.35;;;8.80;99.90;;;;;;4993299;28;20044;-85
2022/06/15 01:41:11;;;;;;;5.53;4.30;;;8.80;99.90;;;;;;4993308;28;20026;-85
2022/06/15 01:43:43;;;;;;;6.55;4.57;;;8.80;99.90;;;;;;4993563;28;20105;-85
2022/06/15 01:46:09;;;;;;;10.80;5.38;;;8.80;99.90;;;;;;4993309;28;20019;-86
2022/06/15 01:48:38;;;;;;;6.43;4.78;;;8.60;99.90;;;;;;4993192;28;20022;-86
2022/06/15 01:51:15;;;;;;;8.55;4.80;;;8.70;99.90;;;;;;5020963;23;20578;-81
2022/06/15 01:53:46;;;;;;;6.60;4.70;;;8.60;99.90;;;;;;4985895;28;20023;-81
2022/06/15 01:56:37;;;;;;;7.05;5.43;;;8.70;99.90;;;;;;4991725;28;20015;-81
2022/06/15 01:59:24;;;;;;;7.70;5.57;;;8.70;99.90;;;;;;4992685;28;20029;-81
2022/06/15 02:02:00;;;;;;;6.68;4.40;;;8.60;99.90;;;;;;4967513;28;20061;-81
2022/06/15 02:04:42;;;;;;;10.43;5.05;;;8.60;99.90;;;;;;4973793;28;20548;-81
2022/06/15 02:07:10;;;;;;;7.60;4.50;;;8.50;99.90;;;;;;4973792;28;20016;-82
2022/06/15 02:10:23;;;;;;;8.10;5.20;;;8.50;99.90;;;;;;4973378;28;20519;-82
2022/06/15 02:13:12;;;;;;;8.13;4.57;;;8.50;99.90;;;;;;4962403;28;20496;-81
2022/06/15 02:15:44;;;;;;;6.45;4.57;;;8.50;99.90;;;;;;4968426;28;20211;-81
2022/06/15 02:18:12;;;;;;;;;;;8.50;99.90;;;;;;4973753;28;20081;-81
2022/06/15 02:20:43;;;;;;;8.80;4.65;;;8.50;99.90;;;;;;4976893;28;19957;-81
2022/06/15 02:23:11;;;;;;;5.00;4.20;;;8.40;99.90;;;;;;4973026;28;20377;-81
2022/06/15 02:25:42;;;;;;;8.32;4.70;;;8.30;99.90;;;;;;4973457;28;20050;-81
2022/06/15 02:28:09;;;;;;;6.80;5.32;;;8.20;99.90;;;;;;4972956;28;20014;-81
2022/06/15 02:30:35;;;;;;;7.63;4.80;;;8.20;99.90;;;;;;4972484;28;20051;-81
2022/06/15 02:33:12;;;;;;;6.93;4.32;;;8.10;99.90;;;;;;4971660;28;20023;-81
2022/06/15 02:35:39;;;;;;;8.43;5.18;;;8.10;99.90;;;;;;4971374;28;20551;-81
2022/06/15 02:38:05;;;;;;;8.88;5.32;;;8.00;99.90;;;;;;4972947;28;20023;-81
2022/06/15 02:40:30;;;;;;;10.23;5.20;;;8.10;99.90;;;;;;4987731;28;20033;-81
2022/06/15 02:42:59;;;;;;;8.05;5.47;;;8.20;99.90;;;;;;4972940;28;20499;-81
2022/06/15 02:45:35;;;;;;;7.10;5.45;;;8.20;99.90;;;;;;4973115;28;20092;-81
2022/06/15 02:48:04;;;;;;;9.40;4.85;;;8.10;99.90;;;;;;4972989;28;20019;-81
2022/06/15 02:50:35;;;;;;;10.35;5.28;;;8.10;99.90;;;;;;5002835;23;20047;-83
2022/06/15 02:53:17;;;;;;;8.38;5.85;;;8.10;99.90;;;;;;4972791;28;20110;-83
2022/06/15 02:55:44;;;;;;;8.70;5.55;;;8.00;99.90;;;;;;4971073;28;20054;-84
2022/06/15 02:58:14;;;;;;;7.57;5.65;;;8.00;99.90;;;;;;4972822;28;20110;-84
2022/06/15 03:00:41;;;;;;;9.93;5.00;;;7.90;99.90;;;;;;4981945;28;20105;-83
2022/06/15 03:03:07;;;;;;;10.27;5.68;;;7.90;99.90;;;;;;4991178;28;20423;-85
2022/06/15 03:05:33;;;;;;;9.13;5.90;;;8.00;99.90;;;;;;4992084;28;20015;-84
2022/06/15 03:07:59;;;;;;;7.25;5.10;;;8.00;99.90;;;;;;4991783;28;20101;-83
2022/06/15 03:10:24;;;;;;;11.48;5.50;;;8.00;99.90;;;;;;4991642;28;20783;-83
2022/06/15 03:12:50;;;;;;;7.30;4.88;;;7.90;99.90;;;;;;4992112;28;20018;-84
2022/06/15 03:15:16;;;;;;;7.10;5.65;;;7.90;99.90;;;;;;4991484;28;20026;-84
2022/06/15 03:17:42;;;;;;;7.90;5.18;;;7.80;99.90;;;;;;4991833;28;20023;-84
2022/06/15 03:20:10;;;;;;;8.77;5.18;;;7.80;99.90;;;;;;4992905;28;20391;-83
2022/06/15 03:22:36;;;;;;;9.00;5.65;;;7.70;99.90;;;;;;4995194;28;20029;-83
2022/06/15 03:25:03;;;;;;;7.88;5.60;;;7.60;99.90;;;;;;4992361;28;20030;-84
2022/06/15 03:27:29;;;;;;;9.52;5.97;;;7.70;99.90;;;;;;4991631;28;20022;-84
2022/06/15 03:29:54;;;;;;;7.43;5.50;;;7.70;99.90;;;;;;4991766;28;20089;-84
2022/06/15 03:32:20;;;;;;;8.10;5.63;;;7.70;99.90;;;;;;4991446;28;20022;-84
2022/06/15 03:34:46;;;;;;;8.75;5.82;;;7.80;99.90;;;;;;4991729;28;20038;-84
2022/06/15 03:37:12;;;;;;;9.57;4.95;;;7.80;99.90;;;;;;4991425;28;20522;-83
2022/06/15 03:39:38;;;;;;;12.93;6.32;;;7.80;99.90;;;;;;4991586;28;20011;-84
2022/06/15 03:42:24;;;;;;;9.88;6.20;;;7.70;99.90;;;;;;4991462;28;20057;-85
2022/06/15 03:44:51;;;;;;;11.98;5.88;;;7.70;99.90;;;;;;4991073;28;20050;-84
2022/06/15 03:47:17;;;;;;;8.10;5.72;;;7.70;99.90;;;;;;4991419;28;20022;-84
2022/06/15 03:49:43;;;;;;;7.25;5.40;;;7.70;99.90;;;;;;5009391;23;20514;31
2022/06/15 03:52:10;;;;;;;9.77;6.57;;;7.80;99.90;;;;;;5028369;28;20195;-81
2022/06/15 03:54:36;;;;;;;8.85;6.30;;;7.80;99.90;;;;;;5031237;28;20037;-81
2022/06/15 03:57:03;;;;;;;13.23;6.90;;;7.90;99.90;;;;;;5031364;28;20044;-81
2022/06/15 03:59:29;;;;;;;8.77;5.57;;;8.00;99.90;;;;;;5030144;28;20092;-81
2022/06/15 04:01:55;;;;;;;11.35;6.78;;;8.00;99.90;;;;;;5010426;28;20116;-81
2022/06/15 04:04:21;;;;;;;16.88;6.43;;;8.00;99.90;;;;;;5011542;28;20057;-81
2022/06/15 04:06:47;;;;;;;12.43;6.88;;;7.90;99.90;;;;;;5011314;28;20022;-81
2022/06/15 04:09:12;;;;;;;9.63;5.68;;;8.00;99.90;;;;;;5011020;28;20022;-81
2022/06/15 04:14:23;;;;;;;9.65;6.53;;;8.10;99.90;;;;;;5011987;28;20025;-81
2022/06/15 04:16:53;;;;;;;10.57;5.72;;;8.20;99.90;;;;;;5013816;28;20391;-81
2022/06/15 04:19:30;;;;;;;13.80;6.53;;;8.20;99.90;;;;;;5015287;28;20025;-81
2022/06/15 04:21:57;;;;;;;12.15;6.15;;;8.20;99.90;;;;;;5010654;28;20029;-81
2022/06/15 04:24:27;;;;;;;9.02;5.70;;;8.20;99.90;;;;;;5015069;28;20022;-81
2022/06/15 04:26:54;;;;;;;15.25;6.30;;;8.20;99.90;;;;;;5014905;28;20026;-81
2022/06/15 04:29:20;;;;;;;9.75;5.85;;;8.20;99.90;;;;;;5014681;28;20017;-81
2022/06/15 04:31:47;;;;;;;7.85;5.65;;;8.30;99.90;;;;;;5013395;28;20026;-81
2022/06/15 04:34:13;;;;;;;12.02;6.00;;;8.30;99.90;;;;;;5015274;28;20026;-80
2022/06/15 04:36:41;;;;;;;7.80;5.38;;;8.30;99.90;;;;;;5014699;28;20064;-81
2022/06/15 04:39:09;;;;;;;9.93;6.18;;;8.40;99.90;;;;;;5015110;28;20013;-80
2022/06/15 04:41:38;;;;;;;8.50;6.03;;;8.40;99.90;;;;;;5015038;28;20024;-81
2022/06/15 04:44:09;;;;;;;12.35;6.57;;;8.50;99.90;;;;;;5014939;28;20637;-81
2022/06/15 04:46:36;;;;;;;8.75;5.93;;;8.60;99.90;;;;;;5013400;28;20030;-81
2022/06/15 04:49:02;;;;;;;10.07;6.47;;;8.60;99.90;;;;;;5014916;28;20054;-81
2022/06/15 04:51:29;;;;;;;10.88;6.68;;;8.70;99.90;;;;;;5028902;22;20101;-78
2022/06/15 04:53:56;;;;;;;9.57;6.88;;;8.80;99.90;;;;;;4996062;28;20030;-78
2022/06/15 04:56:24;;;;;;;13.73;7.43;;;8.80;99.90;;;;;;4996839;28;20470;-78
2022/06/15 04:58:50;;;;;;;10.10;6.43;;;8.90;99.90;;;;;;4996645;28;20032;-78
2022/06/15 05:01:17;;;;;;;8.57;6.60;;;9.00;99.90;;;;;;5004659;28;20534;-78
2022/06/15 05:03:43;;;;;;;17.42;7.22;;;9.10;99.90;;;;;;5014662;28;20043;-78
2022/06/15 05:06:10;;;;;;;9.88;6.32;;;9.20;99.90;;;;;;5014395;28;20531;-78
2022/06/15 05:08:36;;;;;;;11.68;6.32;;;9.20;99.90;;;;;;5014374;28;20026;-78
2022/06/15 05:11:01;;;;;;;8.40;5.20;;;9.30;99.90;;;;;;4996425;28;20044;-78
2022/06/15 05:13:28;;;;;;;10.60;6.25;;;9.40;99.90;;;;;;5014650;28;20022;-79
2022/06/15 05:15:55;;;;;;;11.93;6.78;;;9.50;99.90;;;;;;5014580;28;20030;-78
2022/06/15 05:18:21;;;;;;;10.57;7.00;;;9.60;99.90;;;;;;5014115;28;20115;-79
2022/06/15 05:20:46;;;;;;;9.73;6.25;;;9.70;99.90;;;;;;5006974;28;20482;-78
2022/06/15 05:23:16;;;;;;;11.60;7.50;;;10.00;99.90;;;;;;5014563;28;20029;-78
2022/06/15 05:25:42;;;;;;;11.57;7.15;;;10.10;99.90;;;;;;5013511;28;20030;-79
2022/06/15 05:28:09;;;;;;;12.23;7.53;;;10.20;99.90;;;;;;4992921;28;20029;-78
2022/06/15 05:30:35;;;;;;;15.43;7.80;;;10.30;99.90;;;;;;4995153;28;20033;-79
2022/06/15 05:33:02;;;;;;;14.15;7.75;;;10.50;99.90;;;;;;5014135;28;20439;-79
2022/06/15 05:35:27;;;;;;;13.32;7.30;;;10.60;99.90;;;;;;5013836;28;20029;-78
2022/06/15 05:37:53;;;;;;;14.25;7.03;;;10.80;99.90;;;;;;5013885;28;20100;-78
2022/06/15 05:40:19;;;;;;;14.07;7.03;;;10.90;99.90;;;;;;5013421;28;20104;-79
2022/06/15 05:42:45;;;;;;;10.50;6.47;;;11.00;99.90;;;;;;5013889;28;20375;-79
2022/06/15 05:45:11;;;;;;;11.88;6.78;;;11.10;99.90;;;;;;5014037;28;20021;-79
2022/06/15 05:47:37;;;;;;;10.35;6.70;;;11.30;99.90;;;;;;5014006;28;20072;-78
2022/06/15 05:50:03;;;;;;;13.43;6.47;;;11.30;99.90;;;;;;5019675;22;20014;-82
2022/06/15 05:52:29;;;;;;;14.35;8.10;;;11.50;99.90;;;;;;4956677;28;20432;-81
2022/06/15 05:54:58;;;;;;;13.98;8.68;;;11.70;99.90;;;;;;4973614;28;20039;-81
2022/06/15 05:57:25;;;;;;;14.48;7.50;;;11.80;99.90;;;;;;4956325;28;20051;-81
2022/06/15 05:59:53;;;;;;;12.38;8.07;;;12.00;99.90;;;;;;4974127;28;20076;-81
2022/06/15 06:02:21;;;;;;;10.88;7.90;;;12.20;99.90;;;;;;4992102;28;20025;-81
2022/06/15 06:04:46;;;;;;;11.45;7.57;;;12.40;99.90;;;;;;4993002;28;20027;-81
2022/06/15 06:07:12;;;;;;;12.55;7.65;;;12.60;99.90;;;;;;4993001;28;20033;-80
2022/06/15 06:09:39;;;;;;;9.40;6.93;;;12.70;99.90;;;;;;4993004;28;20046;-81
2022/06/15 06:12:06;;;;;;;11.70;9.15;;;12.90;99.90;;;;;;4975067;28;20038;-81
2022/06/15 06:14:32;;;;;;;10.18;6.35;;;13.00;99.90;;;;;;4975440;28;20023;-81
2022/06/15 06:16:58;;;;;;;15.98;7.53;;;13.30;99.90;;;;;;4992888;28;20022;-82
2022/06/15 06:19:24;;;;;;;11.27;6.80;;;13.50;99.90;;;;;;4992710;28;20030;-82
2022/06/15 06:21:50;;;;;;;11.57;7.55;;;13.80;99.90;;;;;;4986551;28;20435;-82
2022/06/15 06:24:15;;;;;;;11.77;6.57;;;14.10;99.90;;;;;;4992287;28;20077;-82
2022/06/15 06:26:45;;;;;;;8.38;5.97;;;14.50;99.90;;;;;;4992707;28;20501;-81
2022/06/15 06:29:15;;;;;;;8.25;5.72;;;15.10;99.90;;;;;;4992568;28;20046;-81
2022/06/15 06:31:42;;;;;;;9.63;5.90;;;15.80;99.90;;;;;;4980964;28;20034;-82
2022/06/15 06:34:08;;;;;;;8.10;5.20;;;16.50;99.90;;;;;;4991164;28;20416;-81
2022/06/15 06:36:44;;;;;;;7.50;5.43;;;17.10;99.90;;;;;;4991912;28;20507;-82
2022/06/15 06:39:15;;;;;;;7.80;5.28;;;17.80;99.90;;;;;;4992596;28;20069;-81
2022/06/15 06:41:41;;;;;;;5.43;3.78;;;18.40;99.90;;;;;;4986150;28;20104;-81
2022/06/15 06:44:08;;;;;;;12.70;4.63;;;18.80;99.90;;;;;;4990627;28;20030;-81
2022/06/15 06:46:35;;;;;;;7.30;4.55;;;18.80;99.90;;;;;;4992143;28;20030;-82
2022/06/15 06:49:01;;;;;;;7.85;3.97;;;18.80;99.90;;;;;;4971268;28;20042;-82
2022/06/15 06:51:27;;;;;;;7.60;4.45;;;18.90;99.90;;;;;;5015611;23;20057;-89
2022/06/15 06:53:53;;;;;;;5.95;3.90;;;18.90;99.90;;;;;;4992490;28;20026;-89
2022/06/15 06:56:18;;;;;;;5.05;4.07;;;18.70;99.90;;;;;;4993021;28;20073;-89
2022/06/15 06:58:44;;;;;;;7.97;4.80;;;18.70;99.90;;;;;;4992152;28;20395;-86
2022/06/15 07:01:10;;;;;;;8.95;5.47;;;18.40;99.90;;;;;;4989521;28;20041;-87
2022/06/15 07:03:36;;;;;;;7.65;4.75;;;17.90;99.90;;;;;;4985137;28;20037;-88
2022/06/15 07:06:03;;;;;;;6.93;4.50;;;17.60;99.90;;;;;;4984563;28;20423;-87
2022/06/15 07:08:30;;;;;;;6.32;4.47;;;17.40;99.90;;;;;;4991338;28;20034;-88
2022/06/15 07:10:56;;;;;;;7.90;4.25;;;17.30;99.90;;;;;;4991836;28;20031;-87
2022/06/15 07:13:22;;;;;;;8.95;4.93;;;17.30;99.90;;;;;;4990436;28;20059;-88
2022/06/15 07:15:47;;;;;;;8.70;4.90;;;17.30;99.90;;;;;;4991907;28;20027;-90
2022/06/15 07:18:13;;;;;;;8.27;4.85;;;17.30;99.90;;;;;;4991693;28;20030;-87
2022/06/15 07:20:39;;;;;;;5.93;4.38;;;17.30;99.90;;;;;;4991936;28;20014;-86
2022/06/15 07:23:04;;;;;;;5.55;4.53;;;17.40;99.90;;;;;;4988268;28;20105;-89
2022/06/15 07:25:30;;;;;;;10.63;4.72;;;17.40;99.90;;;;;;4991839;28;20415;-88
2022/06/15 07:27:57;;;;;;;9.48;5.00;;;17.40;99.90;;;;;;4991408;28;20023;-87
2022/06/15 07:30:25;;;;;;;9.02;4.50;;;17.40;99.90;;;;;;4991009;28;20042;-86
2022/06/15 07:32:51;;;;;;;6.80;4.57;;;17.50;99.90;;;;;;4991311;28;20023;-87
2022/06/15 07:35:31;;;;;;;8.18;4.38;;;17.50;99.90;;;;;;4991088;28;20368;-85
2022/06/15 07:37:58;;;;;;;8.57;5.55;;;17.70;99.90;;;;;;4991363;28;20113;-83
2022/06/15 07:40:25;;;;;;;6.93;4.03;;;17.80;99.90;;;;;;4991592;28;20034;-87
2022/06/15 07:42:52;;;;;;;7.70;4.63;;;17.90;99.90;;;;;;4988947;28;20041;-89
2022/06/15 07:45:20;;;;;;;5.70;4.32;;;18.00;99.90;;;;;;4991083;28;20491;-88
2022/06/15 07:50:30;;;;;;;10.15;5.20;;;18.30;99.90;;;;;;5014828;23;20100;-85
2022/06/15 07:52:56;;;;;;;10.45;4.78;;;18.40;99.90;;;;;;4991305;28;20029;-86
2022/06/15 07:55:30;;;;;;;9.43;3.75;;;18.50;99.90;;;;;;4991349;28;20036;-85
2022/06/15 07:57:57;;;;;;;6.45;4.22;;;18.40;99.90;;;;;;4990978;28;20027;-86
2022/06/15 08:00:24;;;;;;;8.00;4.05;;;18.70;99.90;;;;;;4989838;28;20030;-86
2022/06/15 08:02:51;;;;;;;6.82;4.25;;;19.00;99.90;;;;;;4991562;28;20518;-86
2022/06/15 08:05:17;;;;;;;7.25;3.85;;;19.40;99.90;;;;;;4991406;28;20121;-86
2022/06/15 08:07:46;;;;;;;4.95;3.55;;;19.60;99.90;;;;;;4991363;28;20057;-86
2022/06/15 08:10:17;;;;;;;5.80;3.30;;;19.80;99.90;;;;;;4991195;28;20550;-86
2022/06/15 08:12:43;;;;;;;10.00;3.25;;;19.90;99.90;;;;;;4991331;28;20058;-86
2022/06/15 08:15:10;;;;;;;5.97;3.45;;;20.00;99.90;;;;;;4991516;28;20030;-87
2022/06/15 08:17:43;;;;;;;6.03;3.22;;;20.00;99.90;;;;;;4991190;28;20021;-87
2022/06/15 08:20:13;;;;;;;6.28;3.35;;;20.20;99.90;;;;;;4990740;28;20033;-86
2022/06/15 08:22:43;;;;;;;5.80;3.28;;;20.40;99.90;;;;;;4990814;28;20088;-86
2022/06/15 08:25:16;;;;;;;7.68;3.40;;;20.60;99.90;;;;;;4991414;28;20420;-86
2022/06/15 08:27:43;;;;;;;4.72;3.13;;;20.80;98.30;;;;;;4991349;28;20015;-86
2022/06/15 08:30:11;;;;;;;9.35;4.15;;;20.80;99.50;;;;;;4991345;28;20066;-86
2022/06/15 08:32:39;;;;;;;6.15;3.85;;;20.90;95.60;;;;;;4991352;28;20018;-85
2022/06/15 08:35:06;;;;;;;5.38;3.22;;;21.10;94.30;;;;;;4991092;28;20076;-86
2022/06/15 08:37:32;;;;;;;7.45;3.72;;;21.50;95.00;;;;;;4991256;28;20019;-85
2022/06/15 08:39:58;;;;;;;5.10;2.80;;;22.40;93.50;;;;;;4991440;28;20022;-86
2022/06/15 08:42:45;;;;;;;3.95;2.60;;;23.40;84.50;;;;;;4991274;28;20033;-87
2022/06/15 08:45:16;;;;;;;7.90;2.03;;;24.50;76.70;;;;;;4981161;28;20018;-87
2022/06/15 08:48:03;;;;;;;3.17;2.10;;;25.70;69.40;;;;;;4990810;28;20580;-88
2022/06/15 08:50:42;;;;;;;4.25;2.70;;;26.40;64.70;;;;;;5020678;23;20100;-89
2022/06/15 08:53:37;;;;;;;3.03;2.17;;;26.90;57.90;;;;;;4994704;28;20487;-89
2022/06/15 08:56:10;;;;;;;4.38;1.88;;;26.80;58.40;;;;;;4992059;28;20033;-89
2022/06/15 08:58:45;;;;;;;8.43;2.45;;;27.60;58.50;;;;;;4990942;28;20372;-90
2022/06/15 09:01:26;;;;;;;5.00;2.10;;;28.60;56.10;;;;;;5002339;28;20030;-86
2022/06/15 09:04:22;;;;;;;5.25;2.60;;;29.40;54.00;;;;;;4997960;28;20021;-90
2022/06/15 09:06:59;;;;;;;6.30;1.92;;;29.20;50.20;;;;;;5018160;28;20099;-91
2022/06/15 09:10:03;;;;;;;1.75;1.50;;;29.70;52.10;;;;;;4999521;28;20030;-90
2022/06/15 09:12:49;;;;;;;5.22;2.20;;;29.40;50.30;;;;;;4990310;28;20113;-89
2022/06/15 09:15:39;;;;;;;4.05;2.20;;;29.40;52.10;;;;;;4990946;28;20391;-90
2022/06/15 09:18:37;;;;;;;2.97;1.52;;;29.70;50.00;;;;;;4997997;28;20029;-91
2022/06/15 09:21:12;;;;;;;4.40;1.90;;;29.60;52.50;;;;;;4992275;28;20034;-90
2022/06/15 09:23:46;;;;;;;2.28;1.67;;;30.00;47.80;;;;;;5007779;28;20482;-91
2022/06/15 09:26:24;;;;;;;3.80;1.50;;;29.80;49.20;;;;;;5016252;28;20053;-90
2022/06/15 09:29:00;;;;;;;2.97;1.70;;;30.60;49.40;;;;;;4990686;28;20020;-91
2022/06/15 09:31:30;;;;;;;3.30;1.88;;;31.10;46.10;;;;;;5018750;28;20022;-90
2022/06/15 09:34:00;;;;;;;5.82;1.70;;;30.90;43.90;;;;;;4999338;28;20744;-87
2022/06/15 09:36:34;;;;;;;2.80;1.33;;;31.60;44.90;;;;;;5001285;28;20034;-90
2022/06/15 09:39:00;;;;;;;2.70;1.48;;;32.60;42.70;;;;;;4993737;28;20022;-90
2022/06/15 09:41:34;;;;;;;3.15;1.40;;;32.50;42.10;;;;;;5003125;28;20026;-90
2022/06/15 09:44:11;;;;;;;2.05;1.17;;;32.40;39.40;;;;;;5014151;28;20358;-90
2022/06/15 09:46:42;;;;;;;3.45;1.13;;;32.00;40.20;;;;;;4998574;28;20022;-90
2022/06/15 09:49:21;;;;;;;2.65;1.00;;;31.70;41.70;;;;;;5007563;28;20034;-91
2022/06/15 09:52:10;;;;;;;6.05;1.70;;;31.80;40.20;;;;;;5025706;23;20045;-90
2022/06/15 09:54:44;;;;;;;2.50;1.17;;;32.10;40.40;;;;;;5016307;28;20449;-90
2022/06/15 09:57:12;;;;;;;3.50;1.23;;;32.70;40.50;;;;;;5016242;28;20048;-88
2022/06/15 09:59:38;;;;;;;3.67;1.50;;;33.20;41.70;;;;;;5032618;28;20508;-88
2022/06/15 10:02:14;;;;;;;3.58;1.05;;;33.30;37.20;;;;;;5005969;28;20334;-89
2022/06/15 10:04:40;;;;;;;7.70;1.80;;;33.20;38.50;;;;;;5012876;28;20053;-89
2022/06/15 10:07:35;;;;;;;5.00;1.10;;;32.90;38.10;;;;;;5011138;28;20068;-90
2022/06/15 10:10:18;;;;;;;5.28;1.00;;;32.90;36.20;;;;;;4995046;28;20490;-91
2022/06/15 10:12:57;;;;;;;2.58;1.13;;;33.20;36.20;;;;;;4990584;28;20028;-89
2022/06/15 10:15:27;;;;;;;3.40;1.15;;;32.60;36.70;;;;;;5013628;28;20033;-90
2022/06/15 10:18:17;;;;;;;2.70;1.00;;;33.20;37.20;;;;;;4996001;28;20024;-91
2022/06/15 10:21:01;;;;;;;2.08;0.90;;;33.70;35.80;;;;;;5006604;28;20022;-88
2022/06/15 10:23:49;;;;;;;2.03;0.70;;;33.70;31.80;;;;;;4988463;28;20033;-90
2022/06/15 10:26:42;;;;;;;2.38;0.80;;;32.90;34.10;;;;;;5007305;28;20113;-89
2022/06/15 10:29:18;;;;;;;2.00;1.02;;;33.10;35.00;;;;;;5008551;28;20075;-90
2022/06/15 10:32:06;;;;;;;2.58;1.25;;;33.70;33.60;;;;;;4995399;28;20018;-91
2022/06/15 10:34:34;;;;;;;2.13;0.80;;;34.50;33.60;;;;;;5006798;28;20360;-91
2022/06/15 10:37:08;;;;;;;1.52;0.90;;;35.40;31.40;;;;;;4988632;28;20041;-90
2022/06/15 10:39:40;;;;;;;3.00;1.00;;;35.20;32.40;;;;;;5012337;28;20029;-91
2022/06/15 10:42:16;;;;;;;1.80;0.60;;;35.40;31.00;;;;;;5001638;28;20068;-91
2022/06/15 10:44:53;;;;;;;2.13;1.00;;;35.00;32.70;;;;;;4994464;28;20132;-91
2022/06/15 10:47:25;;;;;;;2.38;0.70;;;35.50;31.00;;;;;;4995292;28;20033;-89
2022/06/15 10:52:45;;;;;;;3.95;1.00;;;35.00;32.60;;;;;;5049059;28;20041;-82
2022/06/15 11:04:22;;;;;;;1.67;0.90;;;34.90;32.70;;;;;;5032662;28;20115;-83
2022/06/15 11:06:51;;;;;;;3.22;0.88;;;34.70;34.10;;;;;;5014234;28;20022;-82
2022/06/15 11:09:21;;;;;;;2.17;1.13;;;34.40;32.60;;;;;;5032030;28;20025;-82
2022/06/15 11:11:49;;;;;;;4.47;1.20;;;34.80;32.30;;;;;;5032137;28;20018;-83
2022/06/15 11:14:48;;;;;;;1.10;0.85;;;34.80;32.50;;;;;;5007402;28;20391;-82
2022/06/15 11:20:19;;;;;;;5.75;0.90;;;36.40;30.40;;;;;;5028234;28;20045;-82
2022/06/15 11:22:48;;;;;;;1.52;0.82;;;35.90;29.50;;;;;;5013494;28;20044;-81
2022/06/15 11:25:20;;;;;;;2.58;1.10;;;36.80;28.70;;;;;;5031164;28;20053;-82
2022/06/15 11:27:52;;;;;;;1.15;0.77;;;36.60;28.90;;;;;;5032010;28;20067;-83
2022/06/15 11:30:34;;;;;;;3.28;0.90;;;37.10;29.50;;;;;;5031689;28;20110;-82
2022/06/15 11:33:02;;;;;;;1.00;0.90;;;37.10;29.40;;;;;;5032022;28;20022;-82
2022/06/15 11:35:39;;;;;;;1.80;0.90;;;37.00;30.00;;;;;;5014162;28;20463;-82
2022/06/15 11:38:33;;;;;;;3.22;1.27;;;36.80;29.60;;;;;;5031359;28;20529;-83
2022/06/15 11:41:23;;;;;;;2.78;1.23;;;36.80;30.00;;;;;;5027764;28;20033;-82
2022/06/15 11:43:50;;;;;;;3.30;1.30;;;35.70;31.30;;;;;;5031883;28;20092;-83
2022/06/15 11:47:02;;;;;;;2.22;1.00;;;35.40;29.60;;;;;;5031665;28;20073;-83
2022/06/15 11:49:52;;;;;;;2.83;1.25;;;35.40;31.80;;;;;;4952693;28;20038;-83
2022/06/15 11:52:21;;;;;;;2.53;0.98;;;36.90;30.20;;;;;;5050740;22;20097;-91
2022/06/15 11:55:05;;;;;;;1.42;1.10;;;37.10;28.90;;;;;;5015436;28;20041;-91
2022/06/15 11:57:37;;;;;;;1.45;0.95;;;37.30;29.10;;;;;;4993217;28;20540;-91
2022/06/15 12:00:34;;;;;;;2.05;1.10;;;37.20;29.30;;;;;;4992849;28;20383;-90
2022/06/15 12:03:43;;;;;;;5.90;1.20;;;38.10;29.00;;;;;;5001780;28;20061;-88
2022/06/15 12:06:27;;;;;;;1.30;0.82;;;36.70;29.60;;;;;;4986024;28;20022;-89
2022/06/15 12:08:56;;;;;;;1.77;0.90;;;37.90;28.50;;;;;;5017603;28;20375;-89
2022/06/15 12:14:56;;;;;;;2.47;0.90;;;38.20;28.60;;;;;;4982241;28;20118;-90
2022/06/15 12:17:40;;;;;;;2.65;0.95;;;39.40;28.90;;;;;;4992716;28;20027;-90
2022/06/15 12:20:46;;;;;;;3.40;0.98;;;39.80;27.60;;;;;;4992139;28;20038;-89
2022/06/15 12:23:30;;;;;;;3.38;1.00;;;40.30;30.00;;;;;;4999237;28;20085;-89
2022/06/15 12:26:05;;;;;;;3.65;1.80;;;40.50;27.10;;;;;;4999515;28;20018;-90
2022/06/15 12:28:57;;;;;;;1.60;0.90;;;39.40;27.10;;;;;;4995604;28;20030;-92
2022/06/15 12:31:46;;;;;;;2.67;1.10;;;39.80;28.80;;;;;;5000595;28;20114;-92
2022/06/15 12:34:40;;;;;;;2.95;1.08;;;40.30;27.70;;;;;;4999440;28;20498;-89
2022/06/15 12:37:30;;;;;;;3.33;1.10;;;38.70;26.60;;;;;;4995636;28;20018;-88
2022/06/15 12:40:02;;;;;;;6.72;1.80;;;38.00;28.20;;;;;;4990073;28;20046;-89
2022/06/15 12:42:28;;;;;;;2.47;1.00;;;37.20;27.90;;;;;;5010279;28;20054;-89
2022/06/15 12:45:05;;;;;;;2.45;1.10;;;37.40;29.10;;;;;;5003172;28;20069;-90
2022/06/15 12:47:33;;;;;;;1.60;1.15;;;37.90;29.10;;;;;;4998284;28;20062;-90
2022/06/15 12:53:00;;;;;;;2.65;1.27;;;39.90;28.60;;;;;;5052701;28;20045;-90
2022/06/15 12:55:40;;;;;;;2.15;0.90;;;41.20;28.50;;;;;;5036890;28;20021;-90
2022/06/15 12:58:51;;;;;;;1.88;0.80;;;42.60;27.10;;;;;;5037184;28;20466;-90
2022/06/15 13:01:23;;;;;;;3.13;1.23;;;43.40;25.70;;;;;;5003351;28;20045;-91
2022/06/15 13:04:08;;;;;;;1.30;0.90;;;41.60;26.20;;;;;;5058236;28;20075;-87
2022/06/15 13:06:37;;;;;;;3.35;1.25;;;42.80;27.40;;;;;;5036182;28;20036;-89
2022/06/15 13:09:16;;;;;;;0.80;0.80;;;43.80;26.60;;;;;;5054954;28;20025;-90
2022/06/15 13:12:00;;;;;;;2.38;0.70;;;44.00;26.10;;;;;;5037425;28;20025;-91
2022/06/15 13:14:33;;;;;;;1.88;1.00;;;43.30;27.50;;;;;;5031850;28;20047;-91
2022/06/15 13:17:10;;;;;;;3.55;1.02;;;43.10;25.50;;;;;;5048445;28;20025;-90
2022/06/15 13:19:44;;;;;;;2.83;0.82;;;41.20;26.30;;;;;;5055590;28;20013;-92
2022/06/15 13:22:25;;;;;;;2.85;1.20;;;41.00;29.30;;;;;;5040269;28;20089;-91
2022/06/15 13:25:03;;;;;;;2.50;0.70;;;42.40;27.70;;;;;;5045176;28;20025;-88
2022/06/15 13:27:43;;;;;;;1.58;0.73;;;42.60;27.70;;;;;;5037620;28;20025;-92
2022/06/15 13:30:26;;;;;;;2.70;0.77;;;41.70;26.50;;;;;;5042519;28;20475;-88
2022/06/15 13:32:57;;;;;;;4.70;1.10;;;40.70;25.70;;;;;;5043874;28;20059;-92
2022/06/15 13:35:32;;;;;;;1.73;0.90;;;40.80;26.30;;;;;;5048198;28;20021;-89
2022/06/15 13:38:02;;;;;;;2.95;0.95;;;41.00;26.60;;;;;;5036411;28;20443;-90
2022/06/15 13:41:07;;;;;;;3.03;0.75;;;41.00;29.30;;;;;;5034013;28;20693;-89
2022/06/15 13:43:51;;;;;;;1.52;0.90;;;42.10;26.80;;;;;;5035533;28;20033;-90